Brenton Reef — KREQ — position and weather

sailwx.info

Track history (hours):
 
Tides and Currents Weather Stations Pressure Air Temp Water Temp Dewpoint Dewpoint Depression Visibility Wind Speed Wind Dir Waves Ship Positions

Brenton Reef

Owner: Seabulk Tankers, Inc., Fort Lauderdale, FL. More information available from US FCC via Universal Licensing System and Coast Guard Vessel Documentation Center.

Last reported at 2017-Dec-16 05:29 UTC. Time now 2017-Dec-16 05:31 UTC.
Position N 27°55' W 082°27'.

Length 189 m; draft 11.4 m.

Type: Tanker. MMSI: 368004000.

Date/timePositionNaut miles runAvg speedWind from/ knotsBaromVisibWave heightAir tempDewpointWater temp
2017-Dec-16 05:29N 27°55' W 082°27'0 0.0
2017-Dec-16 04:59N 27°55' W 082°27'0 0.0
2017-Dec-16 04:29N 27°55' W 082°27'0 0.0
2017-Dec-16 03:59N 27°55' W 082°27'0 0.0
2017-Dec-16 03:29N 27°55' W 082°27'0 0.0
2017-Dec-16 02:59N 27°55' W 082°27'0 0.0
2017-Dec-16 02:29N 27°55' W 082°27'0 0.0
2017-Dec-16 01:59N 27°55' W 082°27'0 0.0
2017-Dec-16 01:29N 27°55' W 082°27'0 0.0
2017-Dec-16 00:59N 27°55' W 082°27'0 0.0
2017-Dec-16 00:29N 27°55' W 082°27'0 0.0
2017-Dec-15 23:59N 27°55' W 082°27'0 0.0
2017-Dec-15 23:29N 27°55' W 082°27'0 0.0
2017-Dec-15 22:59N 27°55' W 082°27'0 0.0
2017-Dec-15 22:26N 27°55' W 082°27'0 0.0
2017-Dec-15 21:59N 27°55' W 082°27'0 0.0
2017-Dec-15 21:29N 27°55' W 082°27'0 0.0
2017-Dec-15 20:59N 27°55' W 082°27'0 0.0
2017-Dec-15 20:29N 27°55' W 082°27'0 0.0
2017-Dec-15 19:59N 27°55' W 082°27'0 0.0
2017-Dec-15 19:29N 27°55' W 082°27'0 0.0
2017-Dec-15 18:59N 27°55' W 082°27'0 0.0
2017-Dec-15 18:29N 27°55' W 082°27'0 0.0
2017-Dec-15 17:59N 27°55' W 082°27'0 0.0
2017-Dec-15 17:30N 27°55' W 082°27'1 1.2
2017-Dec-15 17:00N 27°54' W 082°26'5 9.0
2017-Dec-15 16:30N 27°50' W 082°27'510.4
2017-Dec-15 16:00N 27°47' W 082°31'611.7
2017-Dec-15 15:30N 27°41' W 082°34'40412.5
2017-Dec-14 07:17N 27°26' W 090°09'415.1
2017-Dec-14 07:00N 27°25' W 090°14'814.8
2017-Dec-14 06:29N 27°25' W 090°22'714.8
2017-Dec-14 05:59N 27°25' W 090°31'714.8
2017-Dec-14 05:31N 27°24' W 090°38'814.8
2017-Dec-14 05:00N 27°24' W 090°47'815.1
2017-Dec-14 04:29N 27°25' W 090°56'714.9
2017-Dec-14 03:59N 27°25' W 091°04'714.7
2017-Dec-14 03:29N 27°27' W 091°12'814.9
2017-Dec-14 02:59N 27°29' W 091°20'714.9
2017-Dec-14 02:29N 27°31' W 091°28'714.8
2017-Dec-14 02:00N 27°33' W 091°36'714.8
2017-Dec-14 01:30N 27°35' W 091°44'815.1
2017-Dec-14 01:00N 27°38' W 091°52'6814.1
2017-Dec-13 20:10N 28°15' W 092°57'314.8
2017-Dec-13 20:00N 28°16' W 092°59'815.0
2017-Dec-13 19:29N 28°21' W 093°06'714.7
2017-Dec-13 18:59N 28°25' W 093°13'9713.1
2017-Dec-13 11:36N 29°21' W 094°44'411.7
2017-Dec-13 11:13N 29°23' W 094°48'311.8
2017-Dec-13 10:59N 29°25' W 094°50'511.3
2017-Dec-13 10:31N 29°30' W 094°52'510.8
2017-Dec-13 10:01N 29°35' W 094°56'510.8
2017-Dec-13 09:30N 29°40' W 094°58'4 8.3
2017-Dec-13 09:01N 29°43' W 095°01'3 6.8
2017-Dec-13 08:31N 29°45' W 095°04'3 5.6
2017-Dec-13 08:01N 29°44' W 095°07'3 5.4
2017-Dec-13 07:30N 29°45' W 095°10'2 3.6
2017-Dec-13 07:00N 29°44' W 095°12'0 0.0
2017-Dec-13 01:17N 29°45' W 095°12'0 0.0
2017-Dec-13 00:41N 29°45' W 095°12'0 0.0
2017-Dec-13 00:23N 29°45' W 095°12'0 0.0
2017-Dec-12 23:35N 29°45' W 095°12'0 0.0
2017-Dec-12 23:26N 29°45' W 095°12'0 0.0
2017-Dec-12 22:56N 29°45' W 095°12'0 0.0
2017-Dec-12 22:29N 29°45' W 095°12'0 0.0
2017-Dec-12 21:56N 29°45' W 095°12'0 0.0
2017-Dec-12 21:26N 29°45' W 095°12'0 0.0
2017-Dec-12 20:59N 29°45' W 095°12'0 0.0
2017-Dec-12 20:20N 29°45' W 095°12'0 0.0
2017-Dec-12 19:47N 29°45' W 095°12'0 0.0
2017-Dec-12 19:23N 29°45' W 095°12'0 0.0
2017-Dec-12 18:38N 29°45' W 095°12'0 0.0
2017-Dec-12 18:23N 29°45' W 095°12'0 0.0
2017-Dec-12 17:59N 29°45' W 095°12'0 0.0
2017-Dec-12 17:29N 29°45' W 095°12'0 0.0
2017-Dec-12 16:56N 29°45' W 095°12'0 0.0
2017-Dec-12 16:26N 29°45' W 095°12'0 0.0
2017-Dec-12 14:47N 29°45' W 095°12'0 0.0
2017-Dec-12 14:02N 29°45' W 095°12'0 0.0
2017-Dec-12 13:53N 29°45' W 095°12'0 0.0
2017-Dec-12 13:29N 29°45' W 095°12'0 0.0
2017-Dec-12 12:53N 29°45' W 095°12'0 0.0
2017-Dec-12 12:08N 29°45' W 095°12'0 0.0
2017-Dec-12 11:56N 29°45' W 095°12'0 0.0
2017-Dec-12 11:29N 29°45' W 095°12'0 0.0
2017-Dec-12 10:53N 29°45' W 095°12'0 0.0
2017-Dec-12 10:20N 29°45' W 095°12'0 0.0
2017-Dec-12 09:56N 29°45' W 095°12'0 0.0
2017-Dec-12 09:02N 29°45' W 095°12'0 0.0
2017-Dec-12 08:47N 29°45' W 095°12'0 0.0
2017-Dec-12 08:26N 29°45' W 095°12'0 0.0
2017-Dec-12 07:53N 29°45' W 095°12'0 0.0
2017-Dec-12 07:29N 29°45' W 095°12'0 0.0
2017-Dec-12 06:56N 29°45' W 095°12'0 0.0
2017-Dec-12 06:26N 29°45' W 095°12'0 0.0
2017-Dec-12 05:50N 29°45' W 095°12'0 0.0
2017-Dec-12 04:53N 29°45' W 095°12'0 0.0
2017-Dec-12 04:29N 29°45' W 095°12'0 0.0
2017-Dec-12 03:53N 29°45' W 095°12'0 0.0
2017-Dec-12 03:29N 29°45' W 095°12'0 0.0
2017-Dec-12 02:56N 29°45' W 095°12'0 0.0
2017-Dec-12 02:17N 29°45' W 095°12'0 0.0
2017-Dec-12 01:59N 29°45' W 095°12'0 0.0
2017-Dec-12 01:29N 29°45' W 095°12'0 0.0
2017-Dec-12 00:59N 29°45' W 095°12'0 0.0
2017-Dec-12 00:29N 29°45' W 095°12'0 0.0
2017-Dec-11 23:53N 29°45' W 095°12'0 0.0
2017-Dec-11 23:29N 29°45' W 095°12'0 0.0
2017-Dec-11 22:59N 29°45' W 095°12'0 0.0
2017-Dec-11 22:29N 29°45' W 095°12'0 0.0
2017-Dec-11 21:47N 29°45' W 095°12'0 0.0
2017-Dec-11 21:29N 29°45' W 095°12'0 0.0
2017-Dec-11 20:23N 29°45' W 095°12'0 0.0
2017-Dec-11 19:59N 29°45' W 095°12'0 0.0
2017-Dec-11 19:26N 29°45' W 095°12'0 0.0
2017-Dec-11 18:59N 29°45' W 095°12'0 0.0
2017-Dec-11 18:20N 29°45' W 095°12'0 0.0
2017-Dec-11 17:56N 29°45' W 095°12'0 0.0
2017-Dec-11 14:47N 29°45' W 095°12'0 0.0
2017-Dec-11 14:29N 29°45' W 095°12'0 0.0
2017-Dec-11 13:56N 29°45' W 095°12'0 0.0
2017-Dec-11 13:29N 29°45' W 095°12'0 0.0
2017-Dec-11 12:59N 29°45' W 095°12'0 0.0
2017-Dec-11 12:23N 29°45' W 095°12'0 0.0
2017-Dec-11 11:53N 29°45' W 095°12'0 0.0
2017-Dec-11 11:20N 29°45' W 095°12'0 0.0
2017-Dec-11 10:56N 29°45' W 095°12'0 0.0
2017-Dec-11 10:26N 29°45' W 095°12'0 0.0
2017-Dec-11 09:56N 29°45' W 095°12'0 0.0
2017-Dec-11 09:14N 29°45' W 095°12'0 0.0
2017-Dec-11 08:47N 29°45' W 095°12'0 0.0
2017-Dec-11 08:29N 29°45' W 095°12'0 0.0
2017-Dec-11 07:56N 29°45' W 095°12'0 0.0
2017-Dec-11 07:26N 29°45' W 095°12'0 0.0
2017-Dec-11 06:53N 29°45' W 095°12'0 0.0
2017-Dec-11 06:29N 29°45' W 095°12'0 0.0
2017-Dec-11 05:53N 29°45' W 095°12'0 0.0
2017-Dec-11 05:20N 29°45' W 095°12'0 0.0
2017-Dec-11 04:59N 29°45' W 095°12'0 0.0
2017-Dec-11 04:26N 29°45' W 095°12'0 0.0
2017-Dec-11 03:44N 29°45' W 095°12'0 0.0
2017-Dec-11 03:26N 29°45' W 095°12'0 0.0
2017-Dec-11 02:50N 29°45' W 095°12'0 0.0
2017-Dec-11 02:26N 29°45' W 095°12'0 0.0
2017-Dec-11 01:59N 29°45' W 095°12'0 0.0
2017-Dec-11 01:29N 29°45' W 095°12'0 0.0
2017-Dec-11 00:56N 29°45' W 095°12'0 0.0
2017-Dec-11 00:29N 29°45' W 095°12'0 0.0
2017-Dec-10 23:56N 29°45' W 095°12'0 0.0
2017-Dec-10 23:20N 29°45' W 095°12'0 0.0
2017-Dec-10 22:59N 29°45' W 095°12'0 0.0
2017-Dec-10 22:23N 29°45' W 095°12'0 0.0
2017-Dec-10 21:59N 29°45' W 095°12'0 0.0
2017-Dec-10 21:23N 29°45' W 095°12'0 0.0
2017-Dec-10 20:59N 29°45' W 095°12'0 0.0
2017-Dec-10 20:29N 29°45' W 095°12'0 0.0
2017-Dec-10 19:59N 29°45' W 095°12'0 0.0
2017-Dec-10 19:26N 29°45' W 095°12'0 0.0
2017-Dec-10 18:59N 29°45' W 095°12'0 0.0
2017-Dec-10 18:26N 29°45' W 095°12'0 0.0
2017-Dec-10 17:56N 29°45' W 095°12'0 0.0
2017-Dec-10 17:26N 29°45' W 095°12'0 0.0
2017-Dec-10 16:56N 29°45' W 095°12'0 0.0
2017-Dec-10 16:20N 29°45' W 095°12'0 0.0
2017-Dec-10 15:56N 29°45' W 095°12'0 0.0
2017-Dec-10 15:26N 29°45' W 095°12'0 0.0
2017-Dec-10 14:59N 29°45' W 095°12'0 0.0
2017-Dec-10 14:26N 29°45' W 095°12'0 0.0
2017-Dec-10 13:59N 29°45' W 095°12'0 0.0
2017-Dec-10 13:19N 29°45' W 095°12'0 0.0
2017-Dec-10 12:58N 29°45' W 095°12'0 0.0
2017-Dec-10 12:28N 29°45' W 095°12'0 0.0
2017-Dec-10 11:55N 29°45' W 095°12'0 0.0
2017-Dec-10 11:25N 29°45' W 095°12'0 0.0
2017-Dec-10 10:58N 29°45' W 095°12'0 0.0
2017-Dec-10 10:19N 29°45' W 095°12'0 0.0
2017-Dec-10 09:52N 29°45' W 095°12'0 0.0
2017-Dec-10 09:28N 29°45' W 095°12'0 0.0
2017-Dec-10 08:58N 29°45' W 095°12'0 0.0
2017-Dec-10 08:22N 29°45' W 095°12'0 0.0
2017-Dec-10 07:52N 29°45' W 095°12'0 0.0
2017-Dec-10 07:25N 29°45' W 095°12'0 0.0
2017-Dec-10 06:58N 29°45' W 095°12'0 0.0
2017-Dec-10 06:25N 29°45' W 095°12'0 0.0
2017-Dec-10 05:58N 29°45' W 095°12'0 0.0
2017-Dec-10 05:28N 29°45' W 095°12'0 0.0
2017-Dec-10 05:00N 29°45' W 095°12'0 0.0
2017-Dec-10 04:31N 29°45' W 095°12'1 1.5
2017-Dec-10 04:00N 29°45' W 095°11'3 5.7
2017-Dec-10 03:31N 29°44' W 095°08'3 6.7
2017-Dec-10 03:00N 29°46' W 095°05'4 7.3
2017-Dec-10 02:31N 29°44' W 095°01'4 8.2
2017-Dec-10 02:01N 29°40' W 094°59'713.0
2017-Dec-10 01:30N 29°34' W 094°56'713.5
2017-Dec-10 01:00N 29°29' W 094°51'713.7
2017-Dec-10 00:30N 29°23' W 094°48'  
2017-Dec-07 16:00N 26°30' W 086°30'   220 / 101019.810.8 25.022.0
Track history (hours):
 
Tides and Currents Weather Stations Pressure Air Temp Water Temp Dewpoint Dewpoint Depression Visibility Wind Speed Wind Dir Waves Ship Positions

Brenton Reef

Owner: Seabulk Tankers, Inc., Fort Lauderdale, FL. More information available from US FCC via Universal Licensing System and Coast Guard Vessel Documentation Center.

Last reported at 2017-Dec-16 05:29 UTC. Time now 2017-Dec-16 05:31 UTC.
Position N 27°55' W 082°27'.

Length 189 m; draft 11.4 m.

Type: Tanker. MMSI: 368004000.

Date/timePositionNaut miles runAvg speedWind from/ knotsBaromVisibWave heightAir tempDewpointWater temp
2017-Dec-16 05:29N 27°55' W 082°27'0 0.0
2017-Dec-16 04:59N 27°55' W 082°27'0 0.0
2017-Dec-16 04:29N 27°55' W 082°27'0 0.0
2017-Dec-16 03:59N 27°55' W 082°27'0 0.0
2017-Dec-16 03:29N 27°55' W 082°27'0 0.0
2017-Dec-16 02:59N 27°55' W 082°27'0 0.0
2017-Dec-16 02:29N 27°55' W 082°27'0 0.0
2017-Dec-16 01:59N 27°55' W 082°27'0 0.0
2017-Dec-16 01:29N 27°55' W 082°27'0 0.0
2017-Dec-16 00:59N 27°55' W 082°27'0 0.0
2017-Dec-16 00:29N 27°55' W 082°27'0 0.0
2017-Dec-15 23:59N 27°55' W 082°27'0 0.0
2017-Dec-15 23:29N 27°55' W 082°27'0 0.0
2017-Dec-15 22:59N 27°55' W 082°27'0 0.0
2017-Dec-15 22:26N 27°55' W 082°27'0 0.0
2017-Dec-15 21:59N 27°55' W 082°27'0 0.0
2017-Dec-15 21:29N 27°55' W 082°27'0 0.0
2017-Dec-15 20:59N 27°55' W 082°27'0 0.0
2017-Dec-15 20:29N 27°55' W 082°27'0 0.0
2017-Dec-15 19:59N 27°55' W 082°27'0 0.0
2017-Dec-15 19:29N 27°55' W 082°27'0 0.0
2017-Dec-15 18:59N 27°55' W 082°27'0 0.0
2017-Dec-15 18:29N 27°55' W 082°27'0 0.0
2017-Dec-15 17:59N 27°55' W 082°27'0 0.0
2017-Dec-15 17:30N 27°55' W 082°27'1 1.2
2017-Dec-15 17:00N 27°54' W 082°26'5 9.0
2017-Dec-15 16:30N 27°50' W 082°27'510.4
2017-Dec-15 16:00N 27°47' W 082°31'611.7
2017-Dec-15 15:30N 27°41' W 082°34'40412.5
2017-Dec-14 07:17N 27°26' W 090°09'415.1
2017-Dec-14 07:00N 27°25' W 090°14'814.8
2017-Dec-14 06:29N 27°25' W 090°22'714.8
2017-Dec-14 05:59N 27°25' W 090°31'714.8
2017-Dec-14 05:31N 27°24' W 090°38'814.8
2017-Dec-14 05:00N 27°24' W 090°47'815.1
2017-Dec-14 04:29N 27°25' W 090°56'714.9
2017-Dec-14 03:59N 27°25' W 091°04'714.7
2017-Dec-14 03:29N 27°27' W 091°12'814.9
2017-Dec-14 02:59N 27°29' W 091°20'714.9
2017-Dec-14 02:29N 27°31' W 091°28'714.8
2017-Dec-14 02:00N 27°33' W 091°36'714.8
2017-Dec-14 01:30N 27°35' W 091°44'815.1
2017-Dec-14 01:00N 27°38' W 091°52'6814.1
2017-Dec-13 20:10N 28°15' W 092°57'314.8
2017-Dec-13 20:00N 28°16' W 092°59'815.0
2017-Dec-13 19:29N 28°21' W 093°06'714.7
2017-Dec-13 18:59N 28°25' W 093°13'9713.1
2017-Dec-13 11:36N 29°21' W 094°44'411.7
2017-Dec-13 11:13N 29°23' W 094°48'311.8
2017-Dec-13 10:59N 29°25' W 094°50'511.3
2017-Dec-13 10:31N 29°30' W 094°52'510.8
2017-Dec-13 10:01N 29°35' W 094°56'510.8
2017-Dec-13 09:30N 29°40' W 094°58'4 8.3
2017-Dec-13 09:01N 29°43' W 095°01'3 6.8
2017-Dec-13 08:31N 29°45' W 095°04'3 5.6
2017-Dec-13 08:01N 29°44' W 095°07'3 5.4
2017-Dec-13 07:30N 29°45' W 095°10'2 3.6
2017-Dec-13 07:00N 29°44' W 095°12'0 0.0
2017-Dec-13 01:17N 29°45' W 095°12'0 0.0
2017-Dec-13 00:41N 29°45' W 095°12'0 0.0
2017-Dec-13 00:23N 29°45' W 095°12'0 0.0
2017-Dec-12 23:35N 29°45' W 095°12'0 0.0
2017-Dec-12 23:26N 29°45' W 095°12'0 0.0
2017-Dec-12 22:56N 29°45' W 095°12'0 0.0
2017-Dec-12 22:29N 29°45' W 095°12'0 0.0
2017-Dec-12 21:56N 29°45' W 095°12'0 0.0
2017-Dec-12 21:26N 29°45' W 095°12'0 0.0
2017-Dec-12 20:59N 29°45' W 095°12'0 0.0
2017-Dec-12 20:20N 29°45' W 095°12'0 0.0
2017-Dec-12 19:47N 29°45' W 095°12'0 0.0
2017-Dec-12 19:23N 29°45' W 095°12'0 0.0
2017-Dec-12 18:38N 29°45' W 095°12'0 0.0
2017-Dec-12 18:23N 29°45' W 095°12'0 0.0
2017-Dec-12 17:59N 29°45' W 095°12'0 0.0
2017-Dec-12 17:29N 29°45' W 095°12'0 0.0
2017-Dec-12 16:56N 29°45' W 095°12'0 0.0
2017-Dec-12 16:26N 29°45' W 095°12'0 0.0
2017-Dec-12 14:47N 29°45' W 095°12'0 0.0
2017-Dec-12 14:02N 29°45' W 095°12'0 0.0
2017-Dec-12 13:53N 29°45' W 095°12'0 0.0
2017-Dec-12 13:29N 29°45' W 095°12'0 0.0
2017-Dec-12 12:53N 29°45' W 095°12'0 0.0
2017-Dec-12 12:08N 29°45' W 095°12'0 0.0
2017-Dec-12 11:56N 29°45' W 095°12'0 0.0
2017-Dec-12 11:29N 29°45' W 095°12'0 0.0
2017-Dec-12 10:53N 29°45' W 095°12'0 0.0
2017-Dec-12 10:20N 29°45' W 095°12'0 0.0
2017-Dec-12 09:56N 29°45' W 095°12'0 0.0
2017-Dec-12 09:02N 29°45' W 095°12'0 0.0
2017-Dec-12 08:47N 29°45' W 095°12'0 0.0
2017-Dec-12 08:26N 29°45' W 095°12'0 0.0
2017-Dec-12 07:53N 29°45' W 095°12'0 0.0
2017-Dec-12 07:29N 29°45' W 095°12'0 0.0
2017-Dec-12 06:56N 29°45' W 095°12'0 0.0
2017-Dec-12 06:26N 29°45' W 095°12'0 0.0
2017-Dec-12 05:50N 29°45' W 095°12'0 0.0
2017-Dec-12 04:53N 29°45' W 095°12'0 0.0
2017-Dec-12 04:29N 29°45' W 095°12'0 0.0
2017-Dec-12 03:53N 29°45' W 095°12'0 0.0
2017-Dec-12 03:29N 29°45' W 095°12'0 0.0
2017-Dec-12 02:56N 29°45' W 095°12'0 0.0
2017-Dec-12 02:17N 29°45' W 095°12'0 0.0
2017-Dec-12 01:59N 29°45' W 095°12'0 0.0
2017-Dec-12 01:29N 29°45' W 095°12'0 0.0
2017-Dec-12 00:59N 29°45' W 095°12'0 0.0
2017-Dec-12 00:29N 29°45' W 095°12'0 0.0
2017-Dec-11 23:53N 29°45' W 095°12'0 0.0
2017-Dec-11 23:29N 29°45' W 095°12'0 0.0
2017-Dec-11 22:59N 29°45' W 095°12'0 0.0
2017-Dec-11 22:29N 29°45' W 095°12'0 0.0
2017-Dec-11 21:47N 29°45' W 095°12'0 0.0
2017-Dec-11 21:29N 29°45' W 095°12'0 0.0
2017-Dec-11 20:23N 29°45' W 095°12'0 0.0
2017-Dec-11 19:59N 29°45' W 095°12'0 0.0
2017-Dec-11 19:26N 29°45' W 095°12'0 0.0
2017-Dec-11 18:59N 29°45' W 095°12'0 0.0
2017-Dec-11 18:20N 29°45' W 095°12'0 0.0
2017-Dec-11 17:56N 29°45' W 095°12'0 0.0
2017-Dec-11 14:47N 29°45' W 095°12'0 0.0
2017-Dec-11 14:29N 29°45' W 095°12'0 0.0
2017-Dec-11 13:56N 29°45' W 095°12'0 0.0
2017-Dec-11 13:29N 29°45' W 095°12'0 0.0
2017-Dec-11 12:59N 29°45' W 095°12'0 0.0
2017-Dec-11 12:23N 29°45' W 095°12'0 0.0
2017-Dec-11 11:53N 29°45' W 095°12'0 0.0
2017-Dec-11 11:20N 29°45' W 095°12'0 0.0
2017-Dec-11 10:56N 29°45' W 095°12'0 0.0
2017-Dec-11 10:26N 29°45' W 095°12'0 0.0
2017-Dec-11 09:56N 29°45' W 095°12'0 0.0
2017-Dec-11 09:14N 29°45' W 095°12'0 0.0
2017-Dec-11 08:47N 29°45' W 095°12'0 0.0
2017-Dec-11 08:29N 29°45' W 095°12'0 0.0
2017-Dec-11 07:56N 29°45' W 095°12'0 0.0
2017-Dec-11 07:26N 29°45' W 095°12'0 0.0
2017-Dec-11 06:53N 29°45' W 095°12'0 0.0
2017-Dec-11 06:29N 29°45' W 095°12'0 0.0
2017-Dec-11 05:53N 29°45' W 095°12'0 0.0
2017-Dec-11 05:20N 29°45' W 095°12'0 0.0
2017-Dec-11 04:59N 29°45' W 095°12'0 0.0
2017-Dec-11 04:26N 29°45' W 095°12'0 0.0
2017-Dec-11 03:44N 29°45' W 095°12'0 0.0
2017-Dec-11 03:26N 29°45' W 095°12'0 0.0
2017-Dec-11 02:50N 29°45' W 095°12'0 0.0
2017-Dec-11 02:26N 29°45' W 095°12'0 0.0
2017-Dec-11 01:59N 29°45' W 095°12'0 0.0
2017-Dec-11 01:29N 29°45' W 095°12'0 0.0
2017-Dec-11 00:56N 29°45' W 095°12'0 0.0
2017-Dec-11 00:29N 29°45' W 095°12'0 0.0
2017-Dec-10 23:56N 29°45' W 095°12'0 0.0
2017-Dec-10 23:20N 29°45' W 095°12'0 0.0
2017-Dec-10 22:59N 29°45' W 095°12'0 0.0
2017-Dec-10 22:23N 29°45' W 095°12'0 0.0
2017-Dec-10 21:59N 29°45' W 095°12'0 0.0
2017-Dec-10 21:23N 29°45' W 095°12'0 0.0
2017-Dec-10 20:59N 29°45' W 095°12'0 0.0
2017-Dec-10 20:29N 29°45' W 095°12'0 0.0
2017-Dec-10 19:59N 29°45' W 095°12'0 0.0
2017-Dec-10 19:26N 29°45' W 095°12'0 0.0
2017-Dec-10 18:59N 29°45' W 095°12'0 0.0
2017-Dec-10 18:26N 29°45' W 095°12'0 0.0
2017-Dec-10 17:56N 29°45' W 095°12'0 0.0
2017-Dec-10 17:26N 29°45' W 095°12'0 0.0
2017-Dec-10 16:56N 29°45' W 095°12'0 0.0
2017-Dec-10 16:20N 29°45' W 095°12'0 0.0
2017-Dec-10 15:56N 29°45' W 095°12'0 0.0
2017-Dec-10 15:26N 29°45' W 095°12'0 0.0
2017-Dec-10 14:59N 29°45' W 095°12'0 0.0
2017-Dec-10 14:26N 29°45' W 095°12'0 0.0
2017-Dec-10 13:59N 29°45' W 095°12'0 0.0
2017-Dec-10 13:19N 29°45' W 095°12'0 0.0
2017-Dec-10 12:58N 29°45' W 095°12'0 0.0
2017-Dec-10 12:28N 29°45' W 095°12'0 0.0
2017-Dec-10 11:55N 29°45' W 095°12'0 0.0
2017-Dec-10 11:25N 29°45' W 095°12'0 0.0
2017-Dec-10 10:58N 29°45' W 095°12'0 0.0
2017-Dec-10 10:19N 29°45' W 095°12'0 0.0
2017-Dec-10 09:52N 29°45' W 095°12'0 0.0
2017-Dec-10 09:28N 29°45' W 095°12'0 0.0
2017-Dec-10 08:58N 29°45' W 095°12'0 0.0
2017-Dec-10 08:22N 29°45' W 095°12'0 0.0
2017-Dec-10 07:52N 29°45' W 095°12'0 0.0
2017-Dec-10 07:25N 29°45' W 095°12'0 0.0
2017-Dec-10 06:58N 29°45' W 095°12'0 0.0
2017-Dec-10 06:25N 29°45' W 095°12'0 0.0
2017-Dec-10 05:58N 29°45' W 095°12'0 0.0
2017-Dec-10 05:28N 29°45' W 095°12'0 0.0
2017-Dec-10 05:00N 29°45' W 095°12'0 0.0
2017-Dec-10 04:31N 29°45' W 095°12'1 1.5
2017-Dec-10 04:00N 29°45' W 095°11'3 5.7
2017-Dec-10 03:31N 29°44' W 095°08'3 6.7
2017-Dec-10 03:00N 29°46' W 095°05'4 7.3
2017-Dec-10 02:31N 29°44' W 095°01'4 8.2
2017-Dec-10 02:01N 29°40' W 094°59'713.0
2017-Dec-10 01:30N 29°34' W 094°56'713.5
2017-Dec-10 01:00N 29°29' W 094°51'713.7
2017-Dec-10 00:30N 29°23' W 094°48'  
2017-Dec-07 16:00N 26°30' W 086°30'   220 / 101019.810.8 25.022.0

Dump ship's entire track history